Time;durP1;ratioP1;P1;durP2;ratioP2;P2;SDS_P1;SDS_P2;PMS_P1;PMS_P2;Temp;Humidity;BMP_temperature;BMP_pressure;BME280_temperature;BME280_humidity;BME280_pressure;Samples;Min_cycle;Max_cycle;Signal;HPM_P1;HPM_P2
2024/04/03 00:00:38;;;;;;;29.55;10.88;;;10.20;99.90;;;;;;5012286;28;20038;-75
2024/04/03 00:03:04;;;;;;;25.27;11.60;;;10.10;99.90;;;;;;5012637;28;20030;-75
2024/04/03 00:05:30;;;;;;;26.17;10.80;;;10.10;99.90;;;;;;5012603;28;20041;-74
2024/04/03 00:07:55;;;;;;;24.38;10.43;;;10.10;99.90;;;;;;5011681;28;20018;-75
2024/04/03 00:10:21;;;;;;;24.40;11.02;;;10.10;99.90;;;;;;5010900;28;20056;-76
2024/04/03 00:12:46;;;;;;;19.75;9.95;;;10.10;99.90;;;;;;5012847;28;20034;-75
2024/04/03 00:15:13;;;;;;;26.00;10.52;;;10.10;99.90;;;;;;5011102;28;20463;-75
2024/04/03 00:17:39;;;;;;;25.48;10.73;;;10.10;99.90;;;;;;5013103;28;21175;-74
2024/04/03 00:20:05;;;;;;;27.73;10.07;;;10.10;99.90;;;;;;5011570;28;20529;-75
2024/04/03 00:22:30;;;;;;;27.55;11.10;;;10.10;99.90;;;;;;5011535;28;20719;-74
2024/04/03 00:24:56;;;;;;;25.88;10.73;;;10.10;99.90;;;;;;5011839;28;20098;-76
2024/04/03 00:27:21;;;;;;;27.88;12.18;;;10.20;99.90;;;;;;5012160;28;20142;-74
2024/04/03 00:29:48;;;;;;;22.65;11.60;;;10.20;99.90;;;;;;5012179;28;20129;-74
2024/04/03 00:32:13;;;;;;;26.50;11.38;;;10.10;99.90;;;;;;5011667;28;20435;-76
2024/04/03 00:34:39;;;;;;;21.15;11.45;;;10.20;99.90;;;;;;5011624;28;20575;-73
2024/04/03 00:37:05;;;;;;;23.55;11.63;;;10.10;99.90;;;;;;5010301;28;20026;-73
2024/04/03 00:39:31;;;;;;;38.08;12.85;;;10.10;99.90;;;;;;5026305;28;20037;-76
2024/04/03 00:41:57;;;;;;;25.58;12.10;;;10.10;99.90;;;;;;5011718;28;20156;-75
2024/04/03 00:44:23;;;;;;;25.80;12.68;;;10.10;99.90;;;;;;5012130;28;20022;-74
2024/04/03 00:46:49;;;;;;;30.20;14.30;;;10.10;99.90;;;;;;5012511;28;20053;-74
2024/04/03 00:49:15;;;;;;;29.05;12.80;;;10.10;99.90;;;;;;5009910;28;20094;-76
2024/04/03 00:51:41;;;;;;;28.98;13.70;;;10.10;99.90;;;;;;5011900;28;20033;-75
2024/04/03 00:54:07;;;;;;;31.52;13.05;;;10.10;99.90;;;;;;5011059;28;20018;-75
2024/04/03 00:56:34;;;;;;;28.55;12.63;;;10.10;99.90;;;;;;5010891;28;20034;-73
2024/04/03 00:58:59;;;;;;;35.45;13.50;;;10.10;99.90;;;;;;5015753;28;20102;-74
2024/04/03 01:01:25;;;;;;;28.40;12.35;;;10.10;99.90;;;;;;5015009;28;20046;-73
2024/04/03 01:03:50;;;;;;;31.90;12.15;;;10.10;99.90;;;;;;5013028;28;20058;-74
2024/04/03 01:06:16;;;;;;;26.13;11.63;;;10.10;99.90;;;;;;5015578;28;20022;-74
2024/04/03 01:08:42;;;;;;;30.00;12.55;;;10.10;99.90;;;;;;5014095;28;20094;-74
2024/04/03 01:11:07;;;;;;;28.98;13.02;;;10.10;99.90;;;;;;5015068;28;20022;-74
2024/04/03 01:13:33;;;;;;;25.23;11.63;;;10.10;99.90;;;;;;5014925;28;20046;-74
2024/04/03 01:16:07;;;;;;;25.38;12.05;;;10.00;99.90;;;;;;5013943;28;20018;-74
2024/04/03 01:18:33;;;;;;;22.88;11.73;;;10.00;99.90;;;;;;5014735;28;20040;-76
2024/04/03 01:20:59;;;;;;;33.40;12.63;;;10.00;99.90;;;;;;5013670;28;20102;-75
2024/04/03 01:23:25;;;;;;;25.05;11.07;;;10.00;99.90;;;;;;5013578;28;20085;-74
2024/04/03 01:25:51;;;;;;;27.95;12.13;;;10.00;99.90;;;;;;5015431;28;20092;-75
2024/04/03 01:28:22;;;;;;;29.85;11.63;;;10.00;99.90;;;;;;5014716;28;20026;-73
2024/04/03 01:30:51;;;;;;;28.40;11.18;;;10.00;99.90;;;;;;5014997;28;20376;-73
2024/04/03 01:33:17;;;;;;;30.63;11.27;;;10.00;99.90;;;;;;5015512;28;20037;-74
2024/04/03 01:35:43;;;;;;;26.60;11.57;;;10.00;99.90;;;;;;5014886;28;20022;-76
2024/04/03 01:38:09;;;;;;;26.95;11.20;;;10.00;99.90;;;;;;5015442;28;20506;-74
2024/04/03 01:40:35;;;;;;;24.02;10.80;;;10.00;99.90;;;;;;5014059;28;20026;-73
2024/04/03 01:43:01;;;;;;;31.35;11.48;;;9.90;99.90;;;;;;5013748;28;20018;-74
2024/04/03 01:45:26;;;;;;;26.75;11.18;;;10.00;99.90;;;;;;5013683;28;20050;-74
2024/04/03 01:47:52;;;;;;;27.73;12.43;;;9.90;99.90;;;;;;5013957;28;20029;-76
2024/04/03 01:50:34;;;;;;;26.48;11.02;;;9.90;99.90;;;;;;5013138;28;20399;-74
2024/04/03 01:53:00;;;;;;;28.95;11.38;;;9.90;99.90;;;;;;5014452;28;20030;-76
2024/04/03 01:55:25;;;;;;;26.13;11.35;;;9.90;99.90;;;;;;5013092;28;20119;-75
2024/04/03 01:57:51;;;;;;;35.90;11.82;;;9.90;99.90;;;;;;5013278;28;20060;-75
2024/04/03 02:00:17;;;;;;;26.25;11.02;;;9.90;99.90;;;;;;5014935;28;20018;-75
2024/04/03 02:02:42;;;;;;;26.83;11.00;;;9.90;99.90;;;;;;5015015;28;20539;-76
2024/04/03 02:05:08;;;;;;;28.15;11.50;;;9.90;99.90;;;;;;5014041;28;20042;-75
2024/04/03 02:07:33;;;;;;;27.58;10.85;;;9.90;99.90;;;;;;5013416;28;20063;-75
2024/04/03 02:09:59;;;;;;;25.10;11.60;;;9.90;99.90;;;;;;5015526;28;20482;-74
2024/04/03 02:12:24;;;;;;;26.83;10.52;;;9.90;99.90;;;;;;5014095;28;20033;-74
2024/04/03 02:14:50;;;;;;;26.55;11.02;;;9.90;99.90;;;;;;5015774;28;20057;-74
2024/04/03 02:17:15;;;;;;;27.17;10.88;;;9.90;99.90;;;;;;5015725;28;20034;-74
2024/04/03 02:19:41;;;;;;;24.88;10.05;;;9.90;99.90;;;;;;5015678;28;20040;-74
2024/04/03 02:22:06;;;;;;;26.58;11.00;;;9.90;99.90;;;;;;5014435;28;20030;-74
2024/04/03 02:24:32;;;;;;;28.02;11.43;;;9.90;99.90;;;;;;5013141;28;20033;-75
2024/04/03 02:26:58;;;;;;;25.10;10.75;;;10.00;99.90;;;;;;5014459;28;20467;-74
2024/04/03 02:29:23;;;;;;;32.85;11.02;;;10.00;99.90;;;;;;5013994;28;20045;-75
2024/04/03 02:31:49;;;;;;;33.00;11.25;;;10.00;99.90;;;;;;5014530;28;20082;-76
2024/04/03 02:34:15;;;;;;;26.17;11.73;;;10.00;99.90;;;;;;5014270;28;20030;-74
2024/04/03 02:36:41;;;;;;;27.17;11.23;;;9.90;99.90;;;;;;5012194;28;20026;-75
2024/04/03 02:39:07;;;;;;;28.10;11.55;;;9.90;99.90;;;;;;5014710;28;20029;-74
2024/04/03 02:41:32;;;;;;;26.30;11.30;;;10.00;99.90;;;;;;5014013;28;20038;-75
2024/04/03 02:43:58;;;;;;;27.67;11.88;;;10.00;99.90;;;;;;5014501;28;20068;-75
2024/04/03 02:46:23;;;;;;;27.83;11.80;;;10.00;99.90;;;;;;5014248;28;20065;-74
2024/04/03 02:48:49;;;;;;;34.10;11.68;;;10.00;99.90;;;;;;5012444;28;20038;-75
2024/04/03 02:51:15;;;;;;;30.75;11.60;;;9.90;99.90;;;;;;5014112;28;20019;-75
2024/04/03 02:53:41;;;;;;;27.40;11.65;;;9.90;99.90;;;;;;5014107;28;20030;-75
2024/04/03 02:56:08;;;;;;;34.72;12.50;;;9.90;99.90;;;;;;5012053;28;20042;-75
2024/04/03 02:58:34;;;;;;;26.38;11.38;;;9.90;99.90;;;;;;5014306;28;20759;-75
2024/04/03 03:01:10;;;;;;;34.72;12.70;;;9.90;99.90;;;;;;5029363;28;20018;-76
2024/04/03 03:03:38;;;;;;;31.05;12.82;;;9.90;99.90;;;;;;5013131;28;20533;-75
2024/04/03 03:06:05;;;;;;;34.08;12.75;;;9.90;99.90;;;;;;5013731;28;20026;-74
2024/04/03 03:08:32;;;;;;;32.95;12.90;;;9.90;99.90;;;;;;5013062;28;20103;-74
2024/04/03 03:10:59;;;;;;;30.42;13.27;;;9.90;99.90;;;;;;5012594;28;20780;-74
2024/04/03 03:13:28;;;;;;;38.03;13.73;;;9.90;99.90;;;;;;5012484;28;20057;-73
2024/04/03 03:15:59;;;;;;;29.70;13.02;;;9.90;99.90;;;;;;5013467;28;20022;-75
2024/04/03 03:18:26;;;;;;;29.52;12.43;;;9.90;99.90;;;;;;5013184;28;20081;-74
2024/04/03 03:20:52;;;;;;;33.25;12.00;;;9.90;99.90;;;;;;5013187;28;21610;-75
2024/04/03 03:23:18;;;;;;;32.38;13.27;;;9.80;99.90;;;;;;5012547;28;20479;-76
2024/04/03 03:25:47;;;;;;;28.88;11.82;;;9.80;99.90;;;;;;5012934;28;20053;-75
2024/04/03 03:28:12;;;;;;;30.25;12.40;;;9.80;99.90;;;;;;5027641;28;20045;-74
2024/04/03 03:30:38;;;;;;;29.38;13.20;;;9.70;99.90;;;;;;5012965;28;20038;-74
2024/04/03 03:33:04;;;;;;;26.75;12.73;;;9.70;99.90;;;;;;5014087;28;20029;-74
2024/04/03 03:35:31;;;;;;;31.13;13.35;;;9.70;99.90;;;;;;5013470;28;20038;-74
2024/04/03 03:37:56;;;;;;;28.27;12.43;;;9.70;99.90;;;;;;5011978;28;20116;-75
2024/04/03 03:40:22;;;;;;;28.15;12.98;;;9.70;99.90;;;;;;5013108;28;20482;-75
2024/04/03 03:42:47;;;;;;;31.90;13.27;;;9.70;99.90;;;;;;5011423;28;20058;-75
2024/04/03 03:45:18;;;;;;;33.55;15.38;;;9.70;99.90;;;;;;5012702;28;20026;-75
2024/04/03 03:47:44;;;;;;;37.28;15.02;;;9.70;99.90;;;;;;5013062;28;20027;-74
2024/04/03 03:52:53;;;;;;;34.38;14.43;;;9.60;99.90;;;;;;5013182;28;20041;-74
2024/04/03 03:55:19;;;;;;;37.50;16.13;;;9.60;99.90;;;;;;5012961;28;20026;-75
2024/04/03 03:57:44;;;;;;;35.22;14.80;;;9.60;99.90;;;;;;5013056;28;20028;-74
2024/04/03 04:00:11;;;;;;;40.88;15.15;;;9.50;99.90;;;;;;5013226;28;20037;-75
2024/04/03 04:02:36;;;;;;;37.95;15.98;;;9.50;99.90;;;;;;5012846;28;20118;-75
2024/04/03 04:05:02;;;;;;;36.55;14.70;;;9.50;99.90;;;;;;5012618;28;20046;-74
2024/04/03 04:07:28;;;;;;;36.75;15.88;;;9.50;99.90;;;;;;5012355;28;20042;-75
2024/04/03 04:09:54;;;;;;;41.03;14.25;;;9.50;99.90;;;;;;5012187;28;20074;-75
2024/04/03 04:12:20;;;;;;;35.97;13.75;;;9.50;99.90;;;;;;5012961;28;20060;-74
2024/04/03 04:14:52;;;;;;;39.72;14.60;;;9.50;99.90;;;;;;5012026;28;20094;-75
2024/04/03 04:17:21;;;;;;;34.90;13.57;;;9.50;99.90;;;;;;5011362;28;20037;-74
2024/04/03 04:19:47;;;;;;;34.85;14.65;;;9.50;99.90;;;;;;5012546;28;20041;-72
2024/04/03 04:22:12;;;;;;;32.58;13.27;;;9.50;99.90;;;;;;5011092;28;20022;-74
2024/04/03 04:24:39;;;;;;;36.30;13.95;;;9.50;99.90;;;;;;5012016;28;20027;-75
2024/04/03 04:27:08;;;;;;;34.03;14.00;;;9.50;99.90;;;;;;5012432;28;20033;-74
2024/04/03 04:29:37;;;;;;;33.22;14.15;;;9.50;99.90;;;;;;5012643;28;20097;-75
2024/04/03 04:32:04;;;;;;;33.28;14.50;;;9.50;99.90;;;;;;5013325;28;20034;-74
2024/04/03 04:34:30;;;;;;;33.22;14.55;;;9.50;99.90;;;;;;5014630;28;20030;-73
2024/04/03 04:36:55;;;;;;;41.78;14.05;;;9.40;99.90;;;;;;5015352;28;20014;-73
2024/04/03 04:39:21;;;;;;;34.50;14.27;;;9.40;99.90;;;;;;5015359;28;20072;-73
2024/04/03 04:41:52;;;;;;;34.35;13.52;;;9.40;99.90;;;;;;5015205;28;20049;-75
2024/04/03 04:44:19;;;;;;;33.00;13.05;;;9.40;99.90;;;;;;5015898;28;20040;-73
2024/04/03 04:46:56;;;;;;;35.15;14.00;;;9.40;99.90;;;;;;5013912;28;20077;-73
2024/04/03 04:49:23;;;;;;;34.85;14.55;;;9.40;99.90;;;;;;5016549;28;20088;-73
2024/04/03 04:51:48;;;;;;;36.83;14.38;;;9.40;99.90;;;;;;5016012;28;20077;-76
2024/04/03 04:54:16;;;;;;;32.65;14.40;;;9.30;99.90;;;;;;5016427;28;20034;-75
2024/04/03 04:56:42;;;;;;;34.85;14.55;;;9.40;99.90;;;;;;5016651;28;20030;-75
2024/04/03 04:59:08;;;;;;;33.75;13.75;;;9.20;99.90;;;;;;5016200;28;20026;-73
2024/04/03 05:01:38;;;;;;;35.00;14.90;;;9.30;99.90;;;;;;5016465;28;20054;-75
2024/04/03 05:04:04;;;;;;;43.17;14.23;;;9.30;99.90;;;;;;5022495;28;20080;-73
2024/04/03 05:06:30;;;;;;;34.22;13.30;;;9.30;99.90;;;;;;5015901;28;20057;-74
2024/04/03 05:08:56;;;;;;;30.50;13.20;;;9.30;99.90;;;;;;5015169;28;20052;-74
2024/04/03 05:11:22;;;;;;;42.33;15.15;;;9.30;99.90;;;;;;5015238;28;20035;-74
2024/04/03 05:13:48;;;;;;;49.55;16.75;;;9.30;99.90;;;;;;5014919;28;20022;-74
2024/04/03 05:16:15;;;;;;;50.13;15.70;;;9.30;99.90;;;;;;5014784;28;20036;-76
2024/04/03 05:18:44;;;;;;;47.35;15.75;;;9.30;99.90;;;;;;5015988;28;20034;-76
2024/04/03 05:21:10;;;;;;;58.78;16.33;;;9.30;99.90;;;;;;5016586;28;20030;-74
2024/04/03 05:23:36;;;;;;;52.45;16.52;;;9.30;99.90;;;;;;5015682;28;20070;-73
2024/04/03 05:26:06;;;;;;;52.38;17.02;;;9.30;99.90;;;;;;5016353;28;20030;-73
2024/04/03 05:28:35;;;;;;;57.85;17.60;;;9.30;99.90;;;;;;5017127;28;20029;-75
2024/04/03 05:31:15;;;;;;;57.22;16.13;;;9.30;99.90;;;;;;5014820;28;20030;-76
2024/04/03 05:33:41;;;;;;;53.75;17.88;;;9.30;99.90;;;;;;5016758;28;20031;-75
2024/04/03 05:36:08;;;;;;;61.40;16.77;;;9.30;99.90;;;;;;5013408;28;20026;-73
2024/04/03 05:38:34;;;;;;;54.65;17.45;;;9.30;99.90;;;;;;5015995;28;20029;-77
2024/04/03 05:41:00;;;;;;;51.13;15.48;;;9.30;99.90;;;;;;5015038;28;20034;-75
2024/04/03 05:43:26;;;;;;;51.67;17.38;;;9.30;99.90;;;;;;5014596;28;20035;-75
2024/04/03 05:45:54;;;;;;;53.63;16.35;;;9.30;99.90;;;;;;5037390;28;20034;-77
2024/04/03 05:48:23;;;;;;;58.30;17.65;;;9.20;99.90;;;;;;5016215;28;20037;-74
2024/04/03 05:51:02;;;;;;;46.08;14.68;;;9.20;99.90;;;;;;5014491;28;20105;-74
2024/04/03 05:53:28;;;;;;;40.67;13.63;;;9.20;99.90;;;;;;5015081;28;20059;-76
2024/04/03 05:55:58;;;;;;;43.08;12.48;;;9.20;99.90;;;;;;5014302;28;20030;-76
2024/04/03 05:58:25;;;;;;;30.88;11.98;;;9.10;99.90;;;;;;5014448;28;20027;-75
2024/04/03 06:00:54;;;;;;;35.58;12.32;;;9.10;99.90;;;;;;5013489;28;20113;-74
2024/04/03 06:03:20;;;;;;;30.40;11.88;;;9.10;99.90;;;;;;5012421;28;20054;-74
2024/04/03 06:05:57;;;;;;;31.95;11.10;;;9.00;99.90;;;;;;5012607;28;20045;-74
2024/04/03 06:08:24;;;;;;;24.38;10.07;;;9.00;99.90;;;;;;5015402;28;20042;-73
2024/04/03 06:10:50;;;;;;;23.92;10.30;;;9.00;99.90;;;;;;5014344;28;20093;-74
2024/04/03 06:13:16;;;;;;;23.73;10.20;;;9.00;99.90;;;;;;5014384;28;20102;-74
2024/04/03 06:15:42;;;;;;;22.52;10.18;;;9.00;99.90;;;;;;5013009;28;20417;-76
2024/04/03 06:18:08;;;;;;;20.05;9.20;;;9.10;99.90;;;;;;5014254;28;20030;-74
2024/04/03 06:20:33;;;;;;;23.52;9.90;;;9.00;99.90;;;;;;5013610;28;20018;-75
2024/04/03 06:22:59;;;;;;;24.23;9.65;;;9.00;99.90;;;;;;5014276;28;20022;-74
2024/04/03 06:25:25;;;;;;;26.40;8.77;;;9.10;99.90;;;;;;5013602;28;20052;-73
2024/04/03 06:27:53;;;;;;;20.95;8.88;;;9.00;99.90;;;;;;5012187;28;20069;-73
2024/04/03 06:30:18;;;;;;;21.65;8.95;;;9.00;99.90;;;;;;5013866;28;20053;-74
2024/04/03 06:32:45;;;;;;;23.50;9.00;;;8.90;99.90;;;;;;5013738;28;20053;-73
2024/04/03 06:35:11;;;;;;;17.40;8.48;;;9.00;99.90;;;;;;5013224;28;20040;-73
2024/04/03 06:37:37;;;;;;;23.42;9.05;;;9.00;99.90;;;;;;5012383;28;20093;-73
2024/04/03 06:40:03;;;;;;;23.40;8.73;;;9.00;99.90;;;;;;5013201;28;20041;-72
2024/04/03 06:42:29;;;;;;;19.92;8.50;;;9.00;99.90;;;;;;5008365;28;20034;-73
2024/04/03 06:44:55;;;;;;;23.15;8.63;;;9.10;99.90;;;;;;5013913;28;20049;-70
2024/04/03 06:47:21;;;;;;;21.45;8.88;;;9.00;99.90;;;;;;5013150;28;20034;-73
2024/04/03 06:49:47;;;;;;;21.05;8.30;;;9.00;99.90;;;;;;5012059;28;20093;-73
2024/04/03 06:52:12;;;;;;;21.67;8.75;;;9.00;99.90;;;;;;5029461;28;20026;-71
2024/04/03 06:54:38;;;;;;;21.13;9.13;;;9.00;99.90;;;;;;5010804;28;20076;-72
2024/04/03 06:57:05;;;;;;;21.75;9.50;;;9.00;99.90;;;;;;5014368;28;20042;-72
2024/04/03 06:59:31;;;;;;;22.13;9.20;;;9.00;99.90;;;;;;5012712;28;20026;-72
2024/04/03 07:01:57;;;;;;;22.23;9.40;;;9.00;99.90;;;;;;5011469;28;20022;-72
2024/04/03 07:04:23;;;;;;;24.40;9.98;;;9.00;99.90;;;;;;5011415;28;20049;-72
2024/04/03 07:06:48;;;;;;;24.23;9.57;;;9.00;99.90;;;;;;5013185;28;20550;-71
2024/04/03 07:09:14;;;;;;;22.95;10.40;;;9.00;99.90;;;;;;5012289;28;20065;-73
2024/04/03 07:11:39;;;;;;;21.15;9.90;;;9.00;99.90;;;;;;5013892;28;20057;-73
2024/04/03 07:14:05;;;;;;;21.15;9.70;;;9.10;99.90;;;;;;5012763;28;20030;-73
2024/04/03 07:16:30;;;;;;;29.65;10.32;;;9.20;99.90;;;;;;5012686;28;20065;-72
2024/04/03 07:18:57;;;;;;;20.73;9.80;;;9.10;99.90;;;;;;5011568;28;20036;-73
2024/04/03 07:21:23;;;;;;;22.63;9.95;;;9.10;99.90;;;;;;5011497;28;20061;-73
2024/04/03 07:23:49;;;;;;;23.15;10.20;;;9.20;99.90;;;;;;5012520;28;20052;-74
2024/04/03 07:26:16;;;;;;;23.60;10.07;;;9.20;99.90;;;;;;5012867;28;20067;-74
2024/04/03 07:28:42;;;;;;;25.10;9.90;;;9.20;99.90;;;;;;5011570;28;20041;-73
2024/04/03 07:31:07;;;;;;;20.73;9.75;;;9.30;99.90;;;;;;5013407;28;20026;-74
2024/04/03 07:33:33;;;;;;;24.42;10.50;;;9.30;99.90;;;;;;5012583;28;20034;-74
2024/04/03 07:36:01;;;;;;;21.02;9.70;;;9.30;99.90;;;;;;5027522;28;20120;-74
2024/04/03 07:38:27;;;;;;;26.50;10.13;;;9.30;99.90;;;;;;5011879;28;20026;-73
2024/04/03 07:40:55;;;;;;;22.13;10.23;;;9.40;99.90;;;;;;5012362;28;20041;-73
2024/04/03 07:43:20;;;;;;;24.50;10.55;;;9.40;99.90;;;;;;5012132;28;20030;-74
2024/04/03 07:45:46;;;;;;;25.55;11.02;;;9.40;99.90;;;;;;5012097;28;20483;-74
2024/04/03 07:48:12;;;;;;;22.60;10.48;;;9.40;99.90;;;;;;5011642;28;20040;-74
2024/04/03 07:50:41;;;;;;;25.88;11.68;;;9.50;99.90;;;;;;5012020;28;20038;-74
2024/04/03 07:53:07;;;;;;;22.05;10.70;;;9.50;99.90;;;;;;5011692;28;20030;-74
2024/04/03 07:55:37;;;;;;;24.77;11.52;;;9.50;99.90;;;;;;5012198;28;20073;-75
2024/04/03 07:58:03;;;;;;;23.33;10.98;;;9.60;99.90;;;;;;5013798;28;20026;-74
2024/04/03 08:00:28;;;;;;;24.50;11.40;;;9.60;99.90;;;;;;5012028;28;20014;-74
2024/04/03 08:02:54;;;;;;;25.23;11.68;;;9.60;99.90;;;;;;5010130;28;20026;-74
2024/04/03 08:05:19;;;;;;;29.17;12.10;;;9.60;99.90;;;;;;5011641;28;20022;-75
2024/04/03 08:07:45;;;;;;;25.17;11.40;;;9.60;99.90;;;;;;5012448;28;20031;-74
2024/04/03 08:10:12;;;;;;;29.10;12.50;;;9.60;99.90;;;;;;5011078;28;20065;-73
2024/04/03 08:12:40;;;;;;;28.77;12.40;;;9.60;99.90;;;;;;5010227;28;20029;-76
2024/04/03 08:15:10;;;;;;;30.90;12.52;;;9.60;99.90;;;;;;5011760;28;20141;-74
2024/04/03 08:17:36;;;;;;;27.52;11.80;;;9.70;99.90;;;;;;5012941;28;20026;-75
2024/04/03 08:20:02;;;;;;;31.98;12.40;;;9.70;99.90;;;;;;5010641;28;20046;-74
2024/04/03 08:22:28;;;;;;;29.38;12.60;;;9.70;99.90;;;;;;5009917;28;20045;-75
2024/04/03 08:24:53;;;;;;;33.03;13.10;;;9.80;99.90;;;;;;5010410;28;20045;-75
2024/04/03 08:27:19;;;;;;;31.17;12.43;;;9.80;99.90;;;;;;5012381;28;20030;-75
2024/04/03 08:29:48;;;;;;;34.03;12.80;;;9.80;99.90;;;;;;5011589;28;20101;-76
2024/04/03 08:32:15;;;;;;;37.45;14.25;;;9.90;99.90;;;;;;5009966;28;20034;-76
2024/04/03 08:34:41;;;;;;;29.70;13.52;;;9.90;99.90;;;;;;5010785;28;20038;-75
2024/04/03 08:37:07;;;;;;;30.55;13.88;;;9.90;99.90;;;;;;5010424;28;20072;-74
2024/04/03 08:39:33;;;;;;;31.45;14.45;;;9.90;99.90;;;;;;5011123;28;20098;-76
2024/04/03 08:42:01;;;;;;;34.97;14.85;;;9.90;99.90;;;;;;5011159;28;20883;-74
2024/04/03 08:44:30;;;;;;;38.42;16.13;;;9.90;99.90;;;;;;5018054;28;20395;-75
2024/04/03 08:46:56;;;;;;;37.97;16.17;;;9.90;99.90;;;;;;5008064;28;20094;-73
2024/04/03 08:49:27;;;;;;;41.88;16.13;;;10.00;99.90;;;;;;5026196;28;20057;-74
2024/04/03 08:51:59;;;;;;;34.45;15.57;;;10.00;99.90;;;;;;5011706;28;20110;-74
2024/04/03 08:54:29;;;;;;;34.85;15.55;;;10.00;99.90;;;;;;5012123;28;20456;-73
2024/04/03 08:56:55;;;;;;;37.88;15.68;;;10.10;99.90;;;;;;5012063;28;20022;-74
2024/04/03 08:59:21;;;;;;;38.83;18.02;;;10.20;99.90;;;;;;5011527;28;20032;-73
2024/04/03 09:01:51;;;;;;;44.90;18.38;;;10.30;99.90;;;;;;5009987;28;20058;-74
2024/04/03 09:04:18;;;;;;;45.13;18.40;;;10.30;99.90;;;;;;5011760;28;20034;-73
2024/04/03 09:06:45;;;;;;;37.25;16.88;;;10.40;99.90;;;;;;5011275;28;20022;-73
2024/04/03 09:09:20;;;;;;;44.08;17.73;;;10.40;99.90;;;;;;5011732;28;20049;-73
2024/04/03 09:11:48;;;;;;;37.60;17.00;;;10.40;99.90;;;;;;5009225;28;20034;-73
2024/04/03 09:14:21;;;;;;;38.67;17.13;;;10.50;99.90;;;;;;5026147;28;20034;-73
2024/04/03 09:16:46;;;;;;;39.20;16.27;;;10.50;99.90;;;;;;5010610;28;20030;-74
2024/04/03 09:19:13;;;;;;;34.70;15.13;;;10.50;99.90;;;;;;5013050;28;20480;-75
2024/04/03 09:21:39;;;;;;;40.58;16.95;;;10.40;99.90;;;;;;5013791;28;20026;-73
2024/04/03 09:24:06;;;;;;;38.45;15.80;;;10.40;99.90;;;;;;5012872;28;20038;-74
2024/04/03 09:26:31;;;;;;;34.30;15.93;;;10.50;99.90;;;;;;5014210;28;20057;-73
2024/04/03 09:29:01;;;;;;;33.75;14.13;;;10.50;99.90;;;;;;5014763;28;20042;-73
2024/04/03 09:31:26;;;;;;;35.75;14.52;;;10.60;99.90;;;;;;5012831;28;20086;-74
2024/04/03 09:33:55;;;;;;;37.17;12.75;;;10.70;99.90;;;;;;5013970;28;20062;-76
2024/04/03 09:36:22;;;;;;;29.90;13.32;;;10.70;99.90;;;;;;5013340;28;20034;-75
2024/04/03 09:38:49;;;;;;;28.83;12.70;;;10.70;99.90;;;;;;5012541;28;21030;-75
2024/04/03 09:41:14;;;;;;;28.45;12.00;;;10.80;99.90;;;;;;5015331;28;20037;-74
2024/04/03 09:43:44;;;;;;;25.48;11.20;;;10.80;99.90;;;;;;5013841;28;20030;-75
2024/04/03 09:46:16;;;;;;;28.42;13.07;;;10.90;99.90;;;;;;5013967;28;20030;-74
2024/04/03 09:48:47;;;;;;;30.70;14.38;;;10.90;99.90;;;;;;5013308;28;20023;-75
2024/04/03 09:51:13;;;;;;;29.48;14.15;;;10.90;99.90;;;;;;5015018;28;20018;-74
2024/04/03 09:53:40;;;;;;;32.25;13.88;;;10.90;99.90;;;;;;5013365;28;20036;-74
2024/04/03 09:56:06;;;;;;;37.72;15.68;;;10.90;99.90;;;;;;5012494;28;20045;-74
2024/04/03 09:58:36;;;;;;;27.00;14.25;;;10.90;99.90;;;;;;5013478;28;20022;-74
2024/04/03 10:01:04;;;;;;;30.80;14.88;;;10.90;99.90;;;;;;5011456;28;20088;-74
2024/04/03 10:03:32;;;;;;;31.55;16.00;;;10.90;99.90;;;;;;5013986;28;20069;-76
2024/04/03 10:06:12;;;;;;;34.63;15.90;;;10.90;99.90;;;;;;5014166;28;20513;-75
2024/04/03 10:08:40;;;;;;;27.95;14.02;;;10.90;99.90;;;;;;5013115;28;20026;-76
2024/04/03 10:11:10;;;;;;;26.08;13.07;;;10.90;99.90;;;;;;5011779;28;20034;-75
2024/04/03 10:13:40;;;;;;;33.30;14.95;;;10.90;99.90;;;;;;5012468;28;20151;-74
2024/04/03 10:16:06;;;;;;;27.55;12.10;;;10.80;99.90;;;;;;5023345;28;20582;-74
2024/04/03 10:18:45;;;;;;;24.90;11.93;;;10.80;99.90;;;;;;5012967;28;20144;-75
2024/04/03 10:21:12;;;;;;;27.83;11.48;;;10.70;99.90;;;;;;5012740;28;20038;-74
2024/04/03 10:23:42;;;;;;;21.98;10.90;;;10.70;99.90;;;;;;5010993;28;20044;-73
2024/04/03 10:26:08;;;;;;;25.70;12.35;;;10.50;99.90;;;;;;5011638;28;20037;-74
2024/04/03 10:28:34;;;;;;;22.58;11.50;;;10.50;99.90;;;;;;5011223;28;20117;-73
2024/04/03 10:31:00;;;;;;;27.00;11.13;;;10.50;99.90;;;;;;5011208;28;20073;-73
2024/04/03 10:33:27;;;;;;;34.38;11.95;;;10.40;99.90;;;;;;5011330;28;20034;-74
2024/04/03 10:35:53;;;;;;;22.75;10.73;;;10.50;99.90;;;;;;5013583;28;20132;-75
2024/04/03 10:38:19;;;;;;;23.13;9.73;;;10.50;99.90;;;;;;5011987;28;20076;-73
2024/04/03 10:40:47;;;;;;;24.58;9.60;;;10.50;99.90;;;;;;5012048;28;20872;-73
2024/04/03 10:43:15;;;;;;;21.98;9.13;;;10.50;99.90;;;;;;5012981;28;20022;-74
2024/04/03 10:45:47;;;;;;;28.48;11.32;;;10.50;99.90;;;;;;5011827;28;20030;-74
2024/04/03 10:48:13;;;;;;;20.63;9.02;;;10.50;99.90;;;;;;5013531;28;20026;-72
2024/04/03 10:50:40;;;;;;;17.08;8.07;;;10.60;99.90;;;;;;5011734;28;20037;-75
2024/04/03 10:53:09;;;;;;;19.70;8.35;;;10.60;99.90;;;;;;5012848;28;20034;-72
2024/04/03 10:55:36;;;;;;;24.42;9.07;;;10.60;99.90;;;;;;5011993;28;20018;-73
2024/04/03 10:58:03;;;;;;;17.83;9.25;;;10.70;99.90;;;;;;5009539;28;20064;-75
2024/04/03 11:00:40;;;;;;;22.50;9.73;;;10.70;99.90;;;;;;5011585;28;20053;-74
2024/04/03 11:03:07;;;;;;;20.23;9.00;;;10.70;99.90;;;;;;5011741;28;20081;-73
2024/04/03 11:05:34;;;;;;;21.45;8.73;;;10.80;99.90;;;;;;5010902;28;20030;-75
2024/04/03 11:08:01;;;;;;;21.05;9.43;;;10.80;99.90;;;;;;5012081;28;20045;-73
2024/04/03 11:10:27;;;;;;;18.70;9.30;;;10.80;99.90;;;;;;5034610;28;20050;-72
2024/04/03 11:13:07;;;;;;;24.38;10.32;;;10.70;99.90;;;;;;5010765;28;20526;-73
2024/04/03 11:15:34;;;;;;;32.13;15.45;;;10.70;99.90;;;;;;5010373;28;20037;-72
2024/04/03 11:18:00;;;;;;;29.83;14.05;;;10.70;99.90;;;;;;5011990;28;20102;-72
2024/04/03 11:20:26;;;;;;;25.83;11.68;;;10.70;99.90;;;;;;5012034;28;20058;-75
2024/04/03 11:22:56;;;;;;;29.17;11.27;;;10.70;99.90;;;;;;5011160;28;20054;-73
2024/04/03 11:25:22;;;;;;;27.08;13.10;;;10.80;99.90;;;;;;5012191;28;20026;-75
2024/04/03 11:27:48;;;;;;;25.98;12.60;;;10.90;99.90;;;;;;5012229;28;20037;-74
2024/04/03 11:30:14;;;;;;;22.33;12.18;;;11.00;99.90;;;;;;5012909;28;20042;-73
2024/04/03 11:32:40;;;;;;;21.38;12.25;;;11.10;99.90;;;;;;5012146;28;20494;-73
2024/04/03 11:35:08;;;;;;;25.40;12.25;;;11.30;99.90;;;;;;5011843;28;20057;-72
2024/04/03 11:37:35;;;;;;;21.55;11.30;;;11.30;99.90;;;;;;5011916;28;20034;-74
2024/04/03 11:40:02;;;;;;;20.40;10.98;;;11.40;99.90;;;;;;5011494;28;20026;-73
2024/04/03 11:42:27;;;;;;;19.38;10.02;;;11.50;99.90;;;;;;5012576;28;20104;-73
2024/04/03 11:44:54;;;;;;;16.83;9.27;;;11.60;99.90;;;;;;5011661;28;20517;-75
2024/04/03 11:47:19;;;;;;;20.95;10.90;;;11.60;99.90;;;;;;5010469;28;20089;-74
2024/04/03 11:49:45;;;;;;;17.65;10.18;;;11.60;99.90;;;;;;5010646;28;20049;-73
2024/04/03 11:52:10;;;;;;;21.10;10.38;;;11.60;99.90;;;;;;5011620;28;20022;-73
2024/04/03 11:54:36;;;;;;;15.18;8.20;;;11.50;99.90;;;;;;5009494;28;20034;-72
2024/04/03 11:57:01;;;;;;;14.52;8.55;;;11.60;99.90;;;;;;5011188;28;20079;-73
2024/04/03 11:59:27;;;;;;;15.30;7.75;;;11.60;99.90;;;;;;5012158;28;20022;-74
2024/04/03 12:01:53;;;;;;;17.42;9.05;;;11.60;99.90;;;;;;5012178;28;20041;-74
2024/04/03 12:04:18;;;;;;;15.18;8.77;;;11.70;99.90;;;;;;5011473;28;20065;-75
2024/04/03 12:06:44;;;;;;;16.42;9.07;;;11.80;99.90;;;;;;5009814;28;20044;-73
2024/04/03 12:09:09;;;;;;;15.82;8.35;;;11.80;99.90;;;;;;5009733;28;20097;-74
2024/04/03 12:11:35;;;;;;;16.48;8.18;;;11.90;99.90;;;;;;5032605;28;20027;-76
2024/04/03 12:14:02;;;;;;;15.88;8.45;;;11.90;99.90;;;;;;5010244;28;21296;-75
2024/04/03 12:16:30;;;;;;;16.50;9.55;;;11.80;99.90;;;;;;5011045;28;20026;-73
2024/04/03 12:19:13;;;;;;;12.77;7.30;;;11.80;99.90;;;;;;5010740;28;20025;-74
2024/04/03 12:21:42;;;;;;;13.02;6.88;;;11.70;99.90;;;;;;5009652;28;20034;-74
2024/04/03 12:24:09;;;;;;;13.32;8.30;;;11.70;99.90;;;;;;5013749;28;20129;-73
2024/04/03 12:26:36;;;;;;;10.50;7.03;;;11.70;99.90;;;;;;5008345;28;20065;-73
2024/04/03 12:29:02;;;;;;;12.13;7.10;;;11.60;99.90;;;;;;5012090;28;20031;-75
2024/04/03 12:31:27;;;;;;;9.63;5.22;;;11.60;99.90;;;;;;5010345;28;20041;-75
2024/04/03 12:33:53;;;;;;;9.88;5.95;;;11.70;99.90;;;;;;5012347;28;20035;-74